Time;durP1;ratioP1;P1;durP2;ratioP2;P2;SDS_P1;SDS_P2;PMS_P1;PMS_P2;Temp;Humidity;BMP_temperature;BMP_pressure;BME280_temperature;BME280_humidity;BME280_pressure;Samples;Min_cycle;Max_cycle;Signal;HPM_P1;HPM_P2
2022/05/30 00:01:57;;;;;;;8.35;2.97;;;;;;;;;;5041284;28;20032;-75
2022/05/30 00:04:23;;;;;;;8.00;2.42;;;;;;;;;;5048605;28;20025;-75
2022/05/30 00:06:49;;;;;;;7.53;2.58;;;;;;;;;;5031539;28;20087;-76
2022/05/30 00:09:15;;;;;;;4.65;2.42;;;;;;;;;;5031625;28;20411;-75
2022/05/30 00:11:42;;;;;;;11.05;2.40;;;;;;;;;;5031480;28;20029;-75
2022/05/30 00:14:08;;;;;;;6.82;2.88;;;;;;;;;;5013790;28;20079;-75
2022/05/30 00:16:34;;;;;;;7.15;2.33;;;;;;;;;;5031503;28;20030;-75
2022/05/30 00:19:00;;;;;;;9.30;2.33;;;;;;;;;;5031618;28;20543;-75
2022/05/30 00:21:27;;;;;;;7.55;2.13;;;;;;;;;;5031453;28;20045;-75
2022/05/30 00:23:53;;;;;;;3.78;2.20;;;;;;;;;;5031455;28;20479;-75
2022/05/30 00:26:20;;;;;;;6.65;2.33;;;;;;;;;;5031382;28;20111;-75
2022/05/30 00:28:46;;;;;;;6.35;2.08;;;;;;;;;;5031296;28;20025;-75
2022/05/30 00:31:13;;;;;;;6.40;2.40;;;;;;;;;;5043913;28;20027;-75
2022/05/30 00:33:40;;;;;;;8.82;2.33;;;;;;;;;;5051149;28;20143;-75
2022/05/30 00:36:06;;;;;;;5.38;2.15;;;;;;;;;;5051042;28;20132;-75
2022/05/30 00:38:32;;;;;;;8.25;2.35;;;;;;;;;;5051233;28;20407;-75
2022/05/30 00:40:58;;;;;;;8.20;2.70;;;;;;;;;;5051077;28;20032;-75
2022/05/30 00:43:27;;;;;;;10.48;2.35;;;;;;;;;;5051266;28;20021;-75
2022/05/30 00:45:54;;;;;;;5.50;2.40;;;;;;;;;;5051012;28;20029;-75
2022/05/30 00:48:23;;;;;;;7.38;2.45;;;;;;;;;;5033180;28;20021;-75
2022/05/30 00:50:50;;;;;;;6.10;2.50;;;;;;;;;;5051083;28;20021;-75
2022/05/30 00:53:16;;;;;;;6.38;2.45;;;;;;;;;;5051076;28;20021;-75
2022/05/30 00:55:43;;;;;;;10.25;2.75;;;;;;;;;;5050838;28;20118;-75
2022/05/30 00:58:10;;;;;;;11.48;2.20;;;;;;;;;;5051088;28;20096;-75
2022/05/30 01:00:36;;;;;;;6.13;2.53;;;;;;;;;;5050794;28;20123;-75
2022/05/30 01:08:33;;;;;;;8.23;2.75;;;;;;;;;;5032347;28;20048;-75
2022/05/30 01:10:59;;;;;;;10.50;2.50;;;;;;;;;;5034462;28;20738;-75
2022/05/30 01:13:27;;;;;;;4.95;2.35;;;;;;;;;;5034483;28;20460;-75
2022/05/30 01:15:54;;;;;;;4.05;2.40;;;;;;;;;;5034346;28;20074;-75
2022/05/30 01:18:32;;;;;;;6.88;2.78;;;;;;;;;;5034295;28;20026;-75
2022/05/30 01:21:04;;;;;;;6.63;2.55;;;;;;;;;;5034423;28;20037;-75
2022/05/30 01:23:36;;;;;;;7.10;2.33;;;;;;;;;;5034319;28;20030;-75
2022/05/30 01:26:20;;;;;;;4.28;2.60;;;;;;;;;;5034368;28;20037;-75
2022/05/30 01:28:50;;;;;;;6.50;2.78;;;;;;;;;;5016432;28;20120;-75
2022/05/30 01:31:16;;;;;;;10.80;2.90;;;;;;;;;;5047426;28;20025;-75
2022/05/30 01:33:43;;;;;;;8.13;2.67;;;;;;;;;;5054100;28;20025;-75
2022/05/30 01:36:09;;;;;;;12.00;2.92;;;;;;;;;;5053969;28;20064;-75
2022/05/30 01:38:35;;;;;;;8.55;3.03;;;;;;;;;;5054128;28;20032;-75
2022/05/30 01:41:02;;;;;;;9.77;3.00;;;;;;;;;;5053957;28;20029;-75
2022/05/30 01:43:28;;;;;;;7.43;2.80;;;;;;;;;;5053908;28;20387;-75
2022/05/30 01:45:54;;;;;;;9.13;2.88;;;;;;;;;;5053771;28;20430;-75
2022/05/30 01:48:20;;;;;;;8.82;2.60;;;;;;;;;;5053803;28;20383;-75
2022/05/30 01:50:47;;;;;;;7.25;2.58;;;;;;;;;;5053800;28;20024;-75
2022/05/30 01:53:13;;;;;;;10.45;2.80;;;;;;;;;;5053794;28;20116;-75
2022/05/30 01:55:39;;;;;;;5.35;2.30;;;;;;;;;;5053718;28;20021;-75
2022/05/30 01:58:05;;;;;;;5.70;2.42;;;;;;;;;;5053632;28;20028;-75
2022/05/30 02:00:32;;;;;;;7.32;2.50;;;;;;;;;;5053562;28;20364;-75
2022/05/30 02:02:58;;;;;;;14.63;2.30;;;;;;;;;;5053522;28;20041;-75
2022/05/30 02:05:24;;;;;;;5.47;2.55;;;;;;;;;;5053246;28;20521;-75
2022/05/30 02:07:50;;;;;;;5.70;2.05;;;;;;;;;;5053603;28;20112;-75
2022/05/30 02:10:16;;;;;;;8.43;2.30;;;;;;;;;;5053467;28;20484;-76
2022/05/30 02:12:42;;;;;;;6.18;2.22;;;;;;;;;;5035453;28;20028;-75
2022/05/30 02:15:08;;;;;;;5.38;2.20;;;;;;;;;;5053283;28;20021;-75
2022/05/30 02:17:37;;;;;;;11.77;2.13;;;;;;;;;;5053178;28;20061;-75
2022/05/30 02:20:04;;;;;;;10.55;2.30;;;;;;;;;;5053195;28;20029;-75
2022/05/30 02:22:30;;;;;;;8.13;2.20;;;;;;;;;;5053252;28;20108;-75
2022/05/30 02:24:57;;;;;;;7.90;2.05;;;;;;;;;;5035400;28;20386;-75
2022/05/30 02:27:23;;;;;;;3.90;2.20;;;;;;;;;;5052991;28;20029;-75
2022/05/30 02:29:49;;;;;;;8.13;2.13;;;;;;;;;;5051501;28;20017;-75
2022/05/30 02:32:16;;;;;;;12.32;2.42;;;;;;;;;;5033110;28;20537;-75
2022/05/30 02:37:26;;;;;;;7.78;2.45;;;;;;;;;;5033160;28;20102;-75
2022/05/30 02:39:52;;;;;;;6.20;2.45;;;;;;;;;;5032954;28;20034;-75
2022/05/30 02:42:19;;;;;;;6.45;2.20;;;;;;;;;;5015028;28;20037;-75
2022/05/30 02:44:45;;;;;;;6.90;2.47;;;;;;;;;;5032869;28;20502;-75
2022/05/30 02:47:11;;;;;;;12.05;2.83;;;;;;;;;;5032851;28;20052;-75
2022/05/30 02:49:37;;;;;;;5.15;2.35;;;;;;;;;;5032803;28;20030;-75
2022/05/30 02:52:04;;;;;;;5.78;2.13;;;;;;;;;;5032752;28;20017;-75
2022/05/30 02:54:30;;;;;;;4.57;2.20;;;;;;;;;;5032694;28;20048;-75
2022/05/30 02:56:57;;;;;;;4.72;1.88;;;;;;;;;;5032543;28;20041;-75
2022/05/30 02:59:24;;;;;;;4.78;2.10;;;;;;;;;;5032610;28;20131;-75
2022/05/30 03:01:50;;;;;;;7.10;2.42;;;;;;;;;;5041317;28;20102;-75
2022/05/30 03:04:17;;;;;;;6.70;2.28;;;;;;;;;;5050505;28;20029;-75
2022/05/30 03:06:43;;;;;;;7.75;2.35;;;;;;;;;;5032367;28;20048;-77
2022/05/30 03:09:11;;;;;;;6.72;2.35;;;;;;;;;;5032473;28;20021;-76
2022/05/30 03:11:37;;;;;;;5.15;2.30;;;;;;;;;;5014717;28;20048;-77
2022/05/30 03:14:03;;;;;;;4.63;2.42;;;;;;;;;;5032391;28;20026;-77
2022/05/30 03:16:30;;;;;;;6.82;2.33;;;;;;;;;;5032044;28;20088;-77
2022/05/30 03:18:56;;;;;;;8.15;2.22;;;;;;;;;;5032237;28;20048;-77
2022/05/30 03:21:22;;;;;;;7.72;2.58;;;;;;;;;;5032199;28;20507;-77
2022/05/30 03:23:48;;;;;;;5.50;2.33;;;;;;;;;;5032103;28;20041;-76
2022/05/30 03:26:15;;;;;;;5.68;2.22;;;;;;;;;;5014054;28;20025;-77
2022/05/30 03:28:41;;;;;;;7.53;2.38;;;;;;;;;;5032106;28;20028;-76
2022/05/30 03:31:08;;;;;;;5.20;2.15;;;;;;;;;;5031362;28;20022;-75
2022/05/30 03:33:35;;;;;;;4.50;2.25;;;;;;;;;;5032001;28;20024;-77
2022/05/30 03:36:01;;;;;;;6.95;3.00;;;;;;;;;;5031706;28;20431;-77
2022/05/30 03:38:27;;;;;;;9.75;2.97;;;;;;;;;;5013947;28;20411;-77
2022/05/30 03:40:53;;;;;;;6.40;2.67;;;;;;;;;;5031808;28;20150;-77
2022/05/30 03:43:21;;;;;;;5.72;2.40;;;;;;;;;;5031865;28;20100;-76
2022/05/30 03:45:47;;;;;;;5.22;2.35;;;;;;;;;;5013717;28;20540;-76
2022/05/30 03:48:20;;;;;;;7.55;2.70;;;;;;;;;;5031806;28;20136;-76
2022/05/30 03:50:49;;;;;;;5.07;2.63;;;;;;;;;;5013965;28;20063;-76
2022/05/30 03:53:15;;;;;;;7.78;2.25;;;;;;;;;;5031776;28;20464;-77
2022/05/30 03:55:43;;;;;;;5.82;2.40;;;;;;;;;;5031659;28;20033;-75
2022/05/30 03:58:09;;;;;;;6.40;2.35;;;;;;;;;;5031846;28;20033;-76
2022/05/30 04:00:36;;;;;;;7.60;2.10;;;;;;;;;;5031837;28;20098;-77
2022/05/30 04:03:02;;;;;;;4.38;2.17;;;;;;;;;;5047744;28;20025;-77
2022/05/30 04:05:28;;;;;;;12.43;2.47;;;;;;;;;;5039894;28;20044;-76
2022/05/30 04:07:55;;;;;;;4.97;2.00;;;;;;;;;;5031782;28;20136;-77
2022/05/30 04:10:21;;;;;;;5.05;2.40;;;;;;;;;;5031812;28;20502;-77
2022/05/30 04:12:48;;;;;;;6.97;2.15;;;;;;;;;;5031809;28;20029;-77
2022/05/30 04:15:23;;;;;;;9.55;2.60;;;;;;;;;;5031657;28;20025;-77
2022/05/30 04:17:50;;;;;;;7.70;3.40;;;;;;;;;;5031598;28;20021;-76
2022/05/30 04:20:17;;;;;;;6.57;2.55;;;;;;;;;;5031570;28;20075;-77
2022/05/30 04:22:46;;;;;;;8.63;2.42;;;;;;;;;;5013900;28;20033;-77
2022/05/30 04:25:12;;;;;;;7.50;3.15;;;;;;;;;;5031557;28;20017;-77
2022/05/30 04:27:38;;;;;;;6.15;2.35;;;;;;;;;;5031608;28;20025;-77
2022/05/30 04:30:05;;;;;;;6.00;2.85;;;;;;;;;;5034772;28;20021;-76
2022/05/30 04:32:31;;;;;;;7.28;2.65;;;;;;;;;;5051382;28;20079;-77
2022/05/30 04:34:57;;;;;;;11.50;2.83;;;;;;;;;;5051398;28;20045;-76
2022/05/30 04:37:23;;;;;;;5.05;2.78;;;;;;;;;;5051414;28;20571;-76
2022/05/30 04:39:49;;;;;;;8.40;2.50;;;;;;;;;;5051240;28;20416;-76
2022/05/30 04:42:15;;;;;;;7.82;2.78;;;;;;;;;;5033239;28;20029;-77
2022/05/30 04:44:41;;;;;;;10.63;2.38;;;;;;;;;;5054696;28;20382;-76
2022/05/30 04:47:11;;;;;;;9.43;2.90;;;;;;;;;;5054991;28;20128;-76
2022/05/30 04:49:37;;;;;;;6.90;2.92;;;;;;;;;;5055041;28;20013;-76
2022/05/30 04:52:03;;;;;;;3.55;2.20;;;;;;;;;;5054990;28;20057;-76
2022/05/30 04:54:29;;;;;;;5.47;2.67;;;;;;;;;;5054976;28;20021;-76
2022/05/30 04:56:55;;;;;;;5.47;2.72;;;;;;;;;;5054864;28;20082;-76
2022/05/30 04:59:21;;;;;;;8.63;2.40;;;;;;;;;;5054840;28;20079;-76
2022/05/30 05:01:48;;;;;;;6.60;2.60;;;;;;;;;;5054747;28;20025;-77
2022/05/30 05:04:14;;;;;;;11.80;2.20;;;;;;;;;;5054681;28;20033;-77
2022/05/30 05:06:43;;;;;;;7.32;2.42;;;;;;;;;;5054778;28;20025;-76
2022/05/30 05:09:18;;;;;;;7.10;2.20;;;;;;;;;;5054910;28;20137;-76
2022/05/30 05:11:45;;;;;;;10.77;2.10;;;;;;;;;;5054541;28;20025;-77
2022/05/30 05:14:12;;;;;;;4.78;2.03;;;;;;;;;;5036506;28;20494;-76
2022/05/30 05:16:38;;;;;;;3.63;2.00;;;;;;;;;;5054246;28;20040;-78
2022/05/30 05:19:05;;;;;;;7.93;2.15;;;;;;;;;;5053860;28;20047;-78
2022/05/30 05:21:33;;;;;;;7.25;1.92;;;;;;;;;;5054253;28;20040;-77
2022/05/30 05:23:59;;;;;;;5.75;1.73;;;;;;;;;;5054061;28;20079;-78
2022/05/30 05:26:26;;;;;;;14.52;1.85;;;;;;;;;;5035748;28;20056;-78
2022/05/30 05:28:52;;;;;;;8.13;1.77;;;;;;;;;;5035960;28;20025;-78
2022/05/30 05:31:33;;;;;;;10.20;1.95;;;;;;;;;;5053224;28;20021;-77
2022/05/30 05:33:59;;;;;;;5.25;1.92;;;;;;;;;;5052866;28;20029;-78
2022/05/30 05:36:27;;;;;;;6.78;1.67;;;;;;;;;;5053790;28;20095;-78
2022/05/30 05:38:53;;;;;;;5.80;1.77;;;;;;;;;;5053919;28;20427;-78
2022/05/30 05:41:21;;;;;;;4.68;1.73;;;;;;;;;;5053895;28;20095;-79
2022/05/30 05:43:47;;;;;;;8.30;1.75;;;;;;;;;;5053561;28;20024;-78
2022/05/30 05:46:17;;;;;;;6.30;1.70;;;;;;;;;;5053021;28;20360;-78
2022/05/30 05:48:43;;;;;;;8.98;1.48;;;;;;;;;;5053682;28;20021;-78
2022/05/30 05:51:09;;;;;;;7.18;1.90;;;;;;;;;;5050756;28;20016;-77
2022/05/30 05:53:35;;;;;;;4.05;1.25;;;;;;;;;;5052931;28;20379;-78
2022/05/30 05:56:14;;;;;;;5.70;1.08;;;;;;;;;;5053376;28;20137;-78
2022/05/30 05:58:40;;;;;;;10.43;2.00;;;;;;;;;;5051200;28;20033;-77
2022/05/30 06:01:08;;;;;;;7.43;1.42;;;;;;;;;;5053264;28;20118;-77
2022/05/30 06:03:34;;;;;;;7.60;1.88;;;;;;;;;;5053306;28;20024;-77
2022/05/30 06:06:00;;;;;;;4.15;1.10;;;;;;;;;;5035211;28;20040;-78
2022/05/30 06:08:26;;;;;;;6.70;1.00;;;;;;;;;;5053720;28;20021;-77
2022/05/30 06:11:11;;;;;;;3.72;1.05;;;;;;;;;;5053762;28;20481;-78
2022/05/30 06:13:38;;;;;;;3.63;0.90;;;;;;;;;;5053664;28;20017;-77
2022/05/30 06:16:05;;;;;;;5.20;0.88;;;;;;;;;;5053244;28;20025;-77
2022/05/30 06:18:31;;;;;;;3.97;0.80;;;;;;;;;;5035356;28;20471;-78
2022/05/30 06:21:01;;;;;;;6.47;0.70;;;;;;;;;;5053165;28;20491;-77
2022/05/30 06:23:27;;;;;;;5.93;1.00;;;;;;;;;;5053179;28;20031;-77
2022/05/30 06:25:53;;;;;;;3.75;0.80;;;;;;;;;;5052622;28;20033;-78
2022/05/30 06:28:20;;;;;;;3.45;0.80;;;;;;;;;;5053099;28;20032;-77
2022/05/30 06:30:46;;;;;;;2.75;0.93;;;;;;;;;;5043983;28;20028;-77
2022/05/30 06:33:12;;;;;;;8.20;1.10;;;;;;;;;;5033474;28;20025;-76
2022/05/30 06:35:42;;;;;;;5.32;0.95;;;;;;;;;;5033259;28;20084;-76
2022/05/30 06:38:09;;;;;;;4.45;1.00;;;;;;;;;;5033298;28;20463;-76
2022/05/30 06:40:35;;;;;;;5.30;0.70;;;;;;;;;;5033098;28;20357;-76
2022/05/30 06:43:01;;;;;;;5.03;0.90;;;;;;;;;;5032986;28;20109;-76
2022/05/30 06:45:28;;;;;;;5.35;0.90;;;;;;;;;;5032896;28;20364;-77
2022/05/30 06:47:54;;;;;;;5.15;0.82;;;;;;;;;;5033014;28;20021;-78
2022/05/30 06:50:20;;;;;;;4.60;0.80;;;;;;;;;;5032898;28;20025;-77
2022/05/30 06:52:46;;;;;;;5.57;0.88;;;;;;;;;;5015052;28;20060;-77
2022/05/30 06:55:12;;;;;;;6.10;1.02;;;;;;;;;;5032889;28;20383;-77
2022/05/30 07:00:22;;;;;;;3.97;0.98;;;;;;;;;;5049776;28;20048;-77
2022/05/30 07:02:50;;;;;;;7.68;1.00;;;;;;;;;;5033989;28;20364;-77
2022/05/30 07:05:16;;;;;;;2.05;0.65;;;;;;;;;;5051326;28;20021;-77
2022/05/30 07:07:42;;;;;;;5.90;1.17;;;;;;;;;;5051661;28;20025;-77
2022/05/30 07:10:10;;;;;;;6.38;0.80;;;;;;;;;;5052036;28;20021;-77
2022/05/30 07:12:36;;;;;;;3.42;0.70;;;;;;;;;;5051967;28;20040;-77
2022/05/30 07:15:02;;;;;;;3.45;0.80;;;;;;;;;;5052000;28;20025;-78
2022/05/30 07:17:28;;;;;;;9.13;0.85;;;;;;;;;;5051825;28;20107;-78
2022/05/30 07:19:54;;;;;;;3.95;0.73;;;;;;;;;;5051930;28;20105;-77
2022/05/30 07:22:20;;;;;;;0.85;0.43;;;;;;;;;;5051870;28;20025;-77
2022/05/30 07:24:46;;;;;;;3.08;0.60;;;;;;;;;;5051761;28;20056;-77
2022/05/30 07:27:12;;;;;;;3.13;0.60;;;;;;;;;;5051273;28;20048;-77
2022/05/30 07:29:38;;;;;;;2.47;0.70;;;;;;;;;;5051710;28;20017;-77
2022/05/30 07:32:05;;;;;;;0.95;0.40;;;;;;;;;;5051501;28;20036;-79
2022/05/30 07:34:32;;;;;;;3.63;0.88;;;;;;;;;;5052260;28;20085;-78
2022/05/30 07:36:58;;;;;;;2.05;0.52;;;;;;;;;;5051095;28;20057;-75
2022/05/30 07:39:24;;;;;;;2.65;0.50;;;;;;;;;;5051781;28;20121;-78
2022/05/30 07:41:51;;;;;;;7.47;0.77;;;;;;;;;;5051819;28;20064;-77
2022/05/30 07:44:17;;;;;;;2.10;0.32;;;;;;;;;;5033841;28;20075;-77
2022/05/30 07:46:44;;;;;;;1.05;0.40;;;;;;;;;;5051823;28;20390;-78
2022/05/30 07:49:11;;;;;;;3.17;0.70;;;;;;;;;;5051594;28;20024;-77
2022/05/30 07:51:37;;;;;;;1.38;0.40;;;;;;;;;;5051649;28;20028;-78
2022/05/30 07:54:03;;;;;;;3.15;0.50;;;;;;;;;;5051471;28;20031;-77
2022/05/30 07:56:29;;;;;;;2.60;0.50;;;;;;;;;;5051030;28;20122;-78
2022/05/30 07:58:55;;;;;;;2.28;0.60;;;;;;;;;;5033729;28;20120;-77
2022/05/30 08:01:22;;;;;;;5.63;0.80;;;;;;;;;;5051726;28;20033;-77
2022/05/30 08:03:51;;;;;;;4.63;0.65;;;;;;;;;;5051569;28;20142;-77
2022/05/30 08:06:19;;;;;;;2.72;0.40;;;;;;;;;;5047210;28;20082;-77
2022/05/30 08:08:45;;;;;;;4.03;0.50;;;;;;;;;;5051489;28;20116;-77
2022/05/30 08:11:12;;;;;;;2.40;0.40;;;;;;;;;;5051514;28;20400;-77
2022/05/30 08:13:38;;;;;;;2.80;0.52;;;;;;;;;;5051623;28;20021;-77
2022/05/30 08:16:04;;;;;;;4.03;0.75;;;;;;;;;;5051500;28;20098;-77
2022/05/30 08:18:31;;;;;;;4.07;1.10;;;;;;;;;;5057117;28;20086;-77
2022/05/30 08:20:57;;;;;;;1.95;0.50;;;;;;;;;;5058078;28;20029;-77
2022/05/30 08:23:23;;;;;;;4.03;0.45;;;;;;;;;;5057942;28;20047;-77
2022/05/30 08:25:50;;;;;;;1.58;0.40;;;;;;;;;;5057940;28;20021;-77
2022/05/30 08:28:16;;;;;;;4.40;0.50;;;;;;;;;;5058012;28;20513;-77
2022/05/30 08:30:42;;;;;;;1.85;0.60;;;;;;;;;;5057749;28;20013;-77
2022/05/30 08:33:12;;;;;;;3.05;0.40;;;;;;;;;;5057980;28;20017;-77
2022/05/30 08:35:38;;;;;;;3.13;0.60;;;;;;;;;;5057975;28;20049;-77
2022/05/30 08:38:04;;;;;;;5.13;0.55;;;;;;;;;;5057876;28;20142;-76
2022/05/30 08:43:20;;;;;;;2.13;0.50;;;;;;;;;;5058325;28;20067;-74
2022/05/30 08:45:47;;;;;;;1.85;0.40;;;;;;;;;;5057716;28;20064;-77
2022/05/30 08:48:14;;;;;;;3.75;0.80;;;;;;;;;;5058022;28;20448;-77
2022/05/30 08:50:59;;;;;;;3.45;1.63;;;;;;;;;;5058041;28;20021;-75
2022/05/30 08:53:30;;;;;;;3.10;0.63;;;;;;;;;;5057914;28;20086;-77
2022/05/30 08:55:59;;;;;;;4.35;0.80;;;;;;;;;;5057908;28;20025;-76
2022/05/30 08:58:41;;;;;;;5.03;0.70;;;;;;;;;;5057771;28;20037;-77
2022/05/30 09:01:31;;;;;;;4.95;0.63;;;;;;;;;;5057495;28;20036;-77
2022/05/30 09:04:08;;;;;;;7.10;0.85;;;;;;;;;;5055528;28;20048;-76
2022/05/30 09:06:37;;;;;;;2.67;0.68;;;;;;;;;;5056138;28;20094;-77
2022/05/30 09:09:08;;;;;;;2.65;0.93;;;;;;;;;;5053963;28;20033;-76
2022/05/30 09:11:56;;;;;;;3.20;0.70;;;;;;;;;;5039641;28;20044;-77
2022/05/30 09:14:30;;;;;;;6.80;0.73;;;;;;;;;;5057807;28;20032;-77
2022/05/30 09:16:59;;;;;;;2.63;0.80;;;;;;;;;;5057321;28;20061;-77
2022/05/30 09:19:25;;;;;;;3.00;0.70;;;;;;;;;;5056806;28;20032;-77
2022/05/30 09:21:53;;;;;;;2.50;0.52;;;;;;;;;;5054915;28;20044;-77
2022/05/30 09:24:20;;;;;;;3.75;0.73;;;;;;;;;;5057728;28;20047;-76
2022/05/30 09:26:46;;;;;;;3.42;0.77;;;;;;;;;;5057505;28;20418;-77
2022/05/30 09:29:18;;;;;;;1.27;0.40;;;;;;;;;;5054730;28;20028;-77
2022/05/30 09:31:44;;;;;;;2.58;0.50;;;;;;;;;;5049320;28;20367;-76
2022/05/30 09:34:29;;;;;;;3.00;0.70;;;;;;;;;;5053703;28;20075;-77
2022/05/30 09:36:55;;;;;;;3.00;0.90;;;;;;;;;;5052717;28;20057;-77
2022/05/30 09:39:21;;;;;;;2.72;0.70;;;;;;;;;;5051974;28;20024;-76
2022/05/30 09:41:53;;;;;;;3.63;0.57;;;;;;;;;;5052779;28;20036;-76
2022/05/30 09:44:19;;;;;;;2.85;0.77;;;;;;;;;;5053719;28;20036;-76
2022/05/30 09:46:59;;;;;;;1.80;0.70;;;;;;;;;;5053261;28;20443;-76
2022/05/30 09:49:25;;;;;;;2.20;0.77;;;;;;;;;;5051770;28;20379;-77
2022/05/30 09:51:56;;;;;;;1.17;0.55;;;;;;;;;;5053651;28;20021;-77
2022/05/30 09:54:25;;;;;;;3.75;0.70;;;;;;;;;;5051227;28;20017;-76
2022/05/30 09:56:58;;;;;;;1.67;0.50;;;;;;;;;;5053253;28;20040;-77
2022/05/30 09:59:25;;;;;;;3.42;0.80;;;;;;;;;;5033828;28;20029;-77
2022/05/30 10:01:52;;;;;;;2.80;0.60;;;;;;;;;;5053884;28;20021;-76
2022/05/30 10:04:18;;;;;;;1.85;0.52;;;;;;;;;;5051796;28;20029;-76
2022/05/30 10:07:00;;;;;;;5.10;0.85;;;;;;;;;;5033884;28;20029;-76
2022/05/30 10:09:26;;;;;;;3.97;0.52;;;;;;;;;;5045056;28;20021;-76
2022/05/30 10:11:57;;;;;;;1.80;0.63;;;;;;;;;;5053669;28;20203;-76
2022/05/30 10:14:25;;;;;;;6.43;0.70;;;;;;;;;;5053691;28;20020;-76
2022/05/30 10:16:54;;;;;;;2.90;0.63;;;;;;;;;;5053672;28;20029;-75
2022/05/30 10:19:28;;;;;;;2.00;0.60;;;;;;;;;;5053713;28;20029;-76
2022/05/30 10:30:44;;;;;;;3.53;0.77;;;;;;;;;;5054106;28;20113;-80
2022/05/30 10:33:10;;;;;;;3.60;0.80;;;;;;;;;;5053905;28;20019;-80
2022/05/30 10:35:43;;;;;;;3.05;0.75;;;;;;;;;;5035797;28;20075;-80
2022/05/30 10:38:13;;;;;;;7.18;0.90;;;;;;;;;;5053772;28;20029;-76
2022/05/30 10:40:58;;;;;;;2.63;0.80;;;;;;;;;;5051735;28;20014;-77
2022/05/30 10:43:36;;;;;;;8.23;1.20;;;;;;;;;;5052948;28;20094;-80
2022/05/30 10:46:08;;;;;;;6.18;0.98;;;;;;;;;;5035813;28;20136;-80
2022/05/30 10:48:39;;;;;;;5.43;1.70;;;;;;;;;;5053458;28;20017;-80
2022/05/30 10:51:16;;;;;;;2.55;0.70;;;;;;;;;;5053584;28;20025;-80
2022/05/30 10:53:55;;;;;;;3.67;0.80;;;;;;;;;;5050242;28;20028;-80
2022/05/30 10:56:23;;;;;;;3.03;0.70;;;;;;;;;;5053873;28;20021;-80
2022/05/30 10:58:59;;;;;;;3.13;0.70;;;;;;;;;;5033249;28;20116;-81
2022/05/30 11:01:25;;;;;;;4.93;1.00;;;;;;;;;;5034444;28;20052;-80
2022/05/30 11:03:58;;;;;;;3.33;0.90;;;;;;;;;;5035702;28;20059;-80
2022/05/30 11:06:30;;;;;;;4.00;1.00;;;;;;;;;;5053432;28;20021;-80
2022/05/30 11:08:59;;;;;;;4.25;0.80;;;;;;;;;;5053527;28;20071;-81
2022/05/30 11:11:48;;;;;;;3.28;1.00;;;;;;;;;;5053830;28;20459;-81
2022/05/30 11:14:26;;;;;;;2.80;0.75;;;;;;;;;;5051738;28;20039;-81
2022/05/30 11:16:55;;;;;;;3.45;0.68;;;;;;;;;;5051563;28;20033;-81
2022/05/30 11:19:30;;;;;;;4.97;0.93;;;;;;;;;;5053676;28;20488;-80
2022/05/30 11:22:05;;;;;;;2.92;0.90;;;;;;;;;;5053490;28;20627;-80
2022/05/30 11:24:32;;;;;;;3.10;0.80;;;;;;;;;;5053550;28;20009;-81
2022/05/30 11:27:17;;;;;;;1.95;1.00;;;;;;;;;;5053057;28;20041;-81
2022/05/30 11:29:54;;;;;;;3.90;0.80;;;;;;;;;;5050729;28;20021;-78
2022/05/30 11:32:38;;;;;;;4.43;1.00;;;;;;;;;;5054388;28;20024;-80
2022/05/30 11:35:29;;;;;;;5.38;0.95;;;;;;;;;;5052134;28;20108;-80
2022/05/30 11:37:58;;;;;;;7.00;0.85;;;;;;;;;;5052282;28;20103;-80
2022/05/30 11:40:30;;;;;;;5.43;1.40;;;;;;;;;;5034265;28;20102;-80
2022/05/30 11:42:56;;;;;;;;;;;;;;;;;;5053232;28;20032;-80
2022/05/30 11:45:41;;;;;;;3.53;1.00;;;;;;;;;;5053149;28;19942;-80
2022/05/30 11:48:07;;;;;;;4.70;1.05;;;;;;;;;;5040373;28;20029;-80
2022/05/30 11:50:35;;;;;;;1.90;0.75;;;;;;;;;;5034988;28;20479;-80
2022/05/30 11:53:01;;;;;;;3.85;1.00;;;;;;;;;;5052146;28;20483;-80
2022/05/30 11:55:41;;;;;;;2.47;0.90;;;;;;;;;;5053094;28;20028;-80
2022/05/30 11:58:12;;;;;;;3.53;0.90;;;;;;;;;;5048144;28;20021;-81
2022/05/30 12:00:41;;;;;;;3.38;0.80;;;;;;;;;;5052356;28;20093;-80
2022/05/30 12:03:30;;;;;;;3.08;1.02;;;;;;;;;;5052615;28;20035;-79
2022/05/30 12:06:15;;;;;;;2.08;0.75;;;;;;;;;;4966710;28;20062;-80
2022/05/30 12:08:59;;;;;;;4.20;1.20;;;;;;;;;;4955043;28;20023;-80
2022/05/30 12:11:44;;;;;;;3.10;0.82;;;;;;;;;;4971964;28;20039;-80
2022/05/30 12:14:25;;;;;;;5.07;1.05;;;;;;;;;;4971826;28;20054;-81
2022/05/30 12:17:00;;;;;;;1.75;0.85;;;;;;;;;;4955522;28;20030;-83
2022/05/30 12:23:48;;;;;;;5.45;0.98;;;;;;;;;;4968464;28;20030;-80
2022/05/30 12:25:38;;;;;;;2.78;0.98;;;;;;;;;;4971678;28;20085;-81
2022/05/30 12:28:24;;;;;;;7.82;1.23;;;;;;;;;;4972075;28;20027;-82
2022/05/30 12:30:54;;;;;;;7.97;1.20;;;;;;;;;;4971603;28;20050;-81
2022/05/30 12:33:46;;;;;;;2.22;1.00;;;;;;;;;;4971754;28;20031;-79
2022/05/30 12:36:16;;;;;;;2.47;1.55;;;;;;;;;;4969111;28;20061;-79
2022/05/30 12:38:51;;;;;;;2.65;0.90;;;;;;;;;;4971761;28;20113;-80
2022/05/30 12:41:19;;;;;;;4.45;1.30;;;;;;;;;;4971750;28;20035;-80
2022/05/30 12:43:46;;;;;;;2.15;0.90;;;;;;;;;;4987836;28;20046;-81
2022/05/30 12:46:17;;;;;;;7.55;1.30;;;;;;;;;;4991061;28;20051;-80
2022/05/30 12:48:46;;;;;;;7.07;1.27;;;;;;;;;;4991236;28;20075;-81
2022/05/30 12:51:12;;;;;;;4.28;0.90;;;;;;;;;;4991355;28;20117;-81
2022/05/30 12:53:59;;;;;;;3.10;0.82;;;;;;;;;;4990869;28;20685;-80
2022/05/30 12:56:37;;;;;;;6.57;1.10;;;;;;;;;;5002890;28;20443;-80
2022/05/30 12:59:03;;;;;;;1.63;0.50;;;;;;;;;;5052650;28;20032;-80
2022/05/30 13:01:44;;;;;;;1.20;0.50;;;;;;;;;;5052484;28;20025;-81
2022/05/30 13:04:21;;;;;;;0.95;0.40;;;;;;;;;;5053648;28;20032;-81
2022/05/30 13:07:04;;;;;;;1.30;0.50;;;;;;;;;;5038461;28;20025;-81
2022/05/30 13:09:33;;;;;;;3.47;0.82;;;;;;;;;;5056612;28;20018;-81
2022/05/30 13:12:09;;;;;;;4.03;0.90;;;;;;;;;;5056566;28;20082;-80
2022/05/30 13:14:41;;;;;;;2.28;0.70;;;;;;;;;;5056197;28;20379;-81
2022/05/30 13:17:26;;;;;;;4.15;0.85;;;;;;;;;;5056483;28;20324;-81
2022/05/30 13:19:54;;;;;;;2.63;0.70;;;;;;;;;;5055530;28;20020;-79
2022/05/30 13:22:43;;;;;;;2.10;0.77;;;;;;;;;;5055703;28;20427;-78
2022/05/30 13:25:11;;;;;;;1.73;0.60;;;;;;;;;;4973086;28;20049;-81
2022/05/30 13:27:37;;;;;;;2.80;0.60;;;;;;;;;;4973839;28;20062;-81
2022/05/30 13:30:05;;;;;;;3.00;0.77;;;;;;;;;;4973828;28;20041;-81
2022/05/30 13:32:32;;;;;;;0.60;0.50;;;;;;;;;;4974002;28;20457;-79
2022/05/30 13:34:59;;;;;;;2.10;0.60;;;;;;;;;;4966226;28;20042;-79
2022/05/30 13:37:30;;;;;;;3.03;0.70;;;;;;;;;;4972974;28;20043;-78
2022/05/30 13:40:01;;;;;;;2.08;0.80;;;;;;;;;;4973465;28;20147;-78
2022/05/30 13:42:31;;;;;;;12.02;1.00;;;;;;;;;;4973745;28;20037;-80
2022/05/30 13:44:58;;;;;;;8.25;0.90;;;;;;;;;;4973845;28;20078;-80
2022/05/30 13:47:27;;;;;;;4.07;1.02;;;;;;;;;;4957898;28;20062;-82
2022/05/30 13:49:54;;;;;;;3.28;0.90;;;;;;;;;;4973944;28;20047;-79
2022/05/30 13:52:25;;;;;;;5.88;0.95;;;;;;;;;;4973812;28;20117;-80
2022/05/30 13:54:54;;;;;;;5.05;1.30;;;;;;;;;;4974042;28;20039;-80
2022/05/30 13:57:20;;;;;;;4.25;1.20;;;;;;;;;;4973866;28;20039;-80
2022/05/30 13:59:50;;;;;;;3.55;1.13;;;;;;;;;;4973803;28;20114;-78
2022/05/30 14:02:17;;;;;;;3.97;1.08;;;;;;;;;;5018611;28;20029;-77
2022/05/30 14:04:53;;;;;;;5.88;1.13;;;;;;;;;;5048843;28;20040;-77
2022/05/30 14:07:24;;;;;;;3.40;0.90;;;;;;;;;;5034199;28;20021;-78
2022/05/30 14:09:51;;;;;;;2.03;0.70;;;;;;;;;;5033897;28;20022;-77
2022/05/30 14:12:18;;;;;;;2.22;1.00;;;;;;;;;;5033882;28;20396;-78
2022/05/30 14:14:46;;;;;;;3.17;0.80;;;;;;;;;;5033682;28;20105;-77
2022/05/30 14:17:12;;;;;;;1.63;1.10;;;;;;;;;;5034195;28;20029;-78
2022/05/30 14:19:40;;;;;;;3.03;0.82;;;;;;;;;;5033873;28;20499;-76
2022/05/30 14:22:11;;;;;;;5.45;0.80;;;;;;;;;;5035269;28;20361;-75
2022/05/30 14:24:38;;;;;;;5.32;1.17;;;;;;;;;;5054009;28;20060;-76
2022/05/30 14:27:14;;;;;;;7.97;1.27;;;;;;;;;;5053504;28;20071;-76
2022/05/30 14:29:43;;;;;;;2.17;0.90;;;;;;;;;;5053352;28;20418;-75
2022/05/30 14:32:18;;;;;;;2.03;0.93;;;;;;;;;;5053400;28;20024;-76
2022/05/30 14:34:56;;;;;;;3.15;1.23;;;;;;;;;;5053232;28;20025;-77
2022/05/30 14:37:22;;;;;;;5.80;0.95;;;;;;;;;;5053604;28;20036;-77
2022/05/30 14:39:50;;;;;;;3.33;1.10;;;;;;;;;;5053488;28;20039;-78
2022/05/30 14:42:20;;;;;;;3.90;0.95;;;;;;;;;;5044023;28;20017;-77
2022/05/30 14:44:51;;;;;;;4.78;1.00;;;;;;;;;;5042408;28;20078;-77
2022/05/30 14:47:31;;;;;;;4.15;0.82;;;;;;;;;;5041457;28;20561;-77
2022/05/30 14:50:11;;;;;;;5.28;1.00;;;;;;;;;;5042537;28;20494;-77
2022/05/30 14:52:47;;;;;;;1.58;0.82;;;;;;;;;;5044472;28;20013;-77
2022/05/30 14:55:37;;;;;;;5.63;0.93;;;;;;;;;;5044331;28;20030;-77
2022/05/30 14:58:13;;;;;;;3.65;1.23;;;;;;;;;;4982048;28;20026;-77
2022/05/30 15:00:59;;;;;;;3.80;0.98;;;;;;;;;;4970527;28;20043;-77
2022/05/30 15:06:12;;;;;;;6.55;0.90;;;;;;;;;;4986712;28;20172;-77
2022/05/30 15:08:38;;;;;;;2.20;0.70;;;;;;;;;;4985762;28;20030;-77
2022/05/30 15:11:17;;;;;;;2.20;0.77;;;;;;;;;;4986439;28;20037;-77
2022/05/30 15:13:44;;;;;;;2.50;0.85;;;;;;;;;;4985140;28;20041;-77
2022/05/30 15:16:10;;;;;;;4.28;0.85;;;;;;;;;;4990859;28;20042;-78
2022/05/30 15:18:36;;;;;;;4.00;0.93;;;;;;;;;;4989930;28;20034;-77
2022/05/30 15:21:03;;;;;;;1.35;0.70;;;;;;;;;;4990797;28;20150;-78
2022/05/30 15:23:29;;;;;;;6.90;0.90;;;;;;;;;;4990951;28;20640;-77
2022/05/30 15:25:55;;;;;;;3.35;1.10;;;;;;;;;;4981405;28;20034;-76